createdAt,value
2018-05-10T00:00:41.302Z,17.05
2018-05-10T00:01:41.320Z,17.12
2018-05-10T00:02:41.338Z,17.19
2018-05-10T00:03:41.428Z,17.24
2018-05-10T00:04:41.387Z,17.26
2018-05-10T00:05:41.409Z,17.12
2018-05-10T00:06:41.436Z,16.96
2018-05-10T00:07:41.457Z,16.94
2018-05-10T00:08:41.706Z,16.79
2018-05-10T00:09:41.499Z,16.79
2018-05-10T00:10:41.530Z,16.89
2018-05-10T00:11:41.299Z,16.97
2018-05-10T00:12:41.567Z,17.05
2018-05-10T00:13:41.690Z,17.15
2018-05-10T00:14:41.357Z,17.11
2018-05-10T00:15:41.378Z,16.94
2018-05-10T00:16:41.656Z,16.89
2018-05-10T00:17:41.676Z,17.01
2018-05-10T00:18:41.703Z,16.91
2018-05-10T00:19:41.723Z,16.93
2018-05-10T00:20:41.750Z,16.99
2018-05-10T00:21:41.781Z,16.84
2018-05-10T00:22:41.795Z,16.96
2018-05-10T00:23:41.817Z,17.01
2018-05-10T00:24:41.843Z,17.09
2018-05-10T00:25:41.853Z,17.09
2018-05-10T00:26:41.616Z,17.09
2018-05-10T00:27:41.711Z,17.04
2018-05-10T00:28:41.963Z,17.23
2018-05-10T00:29:41.936Z,17.26
2018-05-10T00:30:41.703Z,17.19
2018-05-10T00:31:41.498Z,17.22
2018-05-10T00:32:41.761Z,17.26
2018-05-10T00:33:41.835Z,16.99
2018-05-10T00:34:42.076Z,16.97
2018-05-10T00:35:41.824Z,16.91
2018-05-10T00:36:42.102Z,17.05
2018-05-10T00:37:42.134Z,17.19
2018-05-10T00:38:41.893Z,17.15
2018-05-10T00:39:42.175Z,17.33
2018-05-10T00:40:42.241Z,17.12
2018-05-10T00:41:41.951Z,17.05
2018-05-10T00:42:41.985Z,16.97
2018-05-10T00:43:42.306Z,17.01
2018-05-10T00:44:42.282Z,16.78
2018-05-10T00:45:42.293Z,16.74
2018-05-10T00:46:42.315Z,16.89
2018-05-10T00:47:42.338Z,16.64
2018-05-10T00:48:42.365Z,16.71
2018-05-10T00:49:42.402Z,16.68
2018-05-10T00:50:42.409Z,16.61
2018-05-10T00:51:42.439Z,16.71
2018-05-10T00:52:42.204Z,16.78
2018-05-10T00:53:42.488Z,16.97
2018-05-10T00:54:42.524Z,16.96
2018-05-10T00:55:42.525Z,16.84
2018-05-10T00:56:42.550Z,16.76
2018-05-10T00:57:42.579Z,16.91
2018-05-10T00:58:42.645Z,17.04
2018-05-10T00:59:42.615Z,17.05
2018-05-10T01:00:42.637Z,16.81
2018-05-10T01:01:42.665Z,16.76
2018-05-10T01:02:42.427Z,16.97
2018-05-10T01:03:42.706Z,16.93
2018-05-10T01:04:42.551Z,16.94
2018-05-10T01:05:42.750Z,16.84
2018-05-10T01:06:42.517Z,16.91
2018-05-10T01:07:42.539Z,16.84
2018-05-10T01:08:42.584Z,16.74
2018-05-10T01:09:42.585Z,16.81
2018-05-10T01:10:42.865Z,16.83
2018-05-10T01:11:42.392Z,16.78
2018-05-10T01:12:42.910Z,16.65
2018-05-10T01:13:42.930Z,16.66
2018-05-10T01:14:42.694Z,16.65
2018-05-10T01:15:42.973Z,16.61
2018-05-10T01:16:42.745Z,16.6
2018-05-10T01:17:43.014Z,16.47
2018-05-10T01:18:43.032Z,16.38
2018-05-10T01:19:43.054Z,16.23
2018-05-10T01:20:42.823Z,16.2
2018-05-10T01:21:43.116Z,16.2
2018-05-10T01:22:43.126Z,16.21
2018-05-10T01:23:42.642Z,16.16
2018-05-10T01:24:43.165Z,16.21
2018-05-10T01:25:43.188Z,16.17
2018-05-10T01:26:43.222Z,16.09
2018-05-10T01:27:43.238Z,16.23
2018-05-10T01:28:43.260Z,16.2
2018-05-10T01:29:43.283Z,16.38
2018-05-10T01:30:43.054Z,16.36
2018-05-10T01:31:43.331Z,16.47
2018-05-10T01:32:43.359Z,16.47
2018-05-10T01:33:43.369Z,16.43
2018-05-10T01:34:43.394Z,16.53
2018-05-10T01:35:43.420Z,16.49
2018-05-10T01:36:43.197Z,16.41
2018-05-10T01:37:43.461Z,16.47
2018-05-10T01:38:43.502Z,16.32
2018-05-10T01:39:42.995Z,16.33
2018-05-10T01:40:43.271Z,16.29
2018-05-10T01:41:43.544Z,16.24
2018-05-10T01:42:43.571Z,16.26
2018-05-10T01:43:43.339Z,16.2
2018-05-10T01:44:43.353Z,16.2
2018-05-10T01:45:43.633Z,16.26
2018-05-10T01:46:43.656Z,16.1
2018-05-10T01:47:43.679Z,16.1
2018-05-10T01:48:43.446Z,16.09
2018-05-10T01:49:43.468Z,16.02
2018-05-10T01:50:43.489Z,16.04
2018-05-10T01:51:43.508Z,15.95
2018-05-10T01:52:43.766Z,16.08
2018-05-10T01:53:43.795Z,16.1
2018-05-10T01:54:43.832Z,16.23
2018-05-10T01:55:43.851Z,15.92
2018-05-10T01:56:43.871Z,16.12
2018-05-10T01:57:43.639Z,16.1
2018-05-10T01:58:43.921Z,16.12
2018-05-10T01:59:43.942Z,16.12
2018-05-10T02:00:43.963Z,16.1
2018-05-10T02:01:44.016Z,16.09
2018-05-10T02:02:44.005Z,16.1
2018-05-10T02:03:43.770Z,16.1
2018-05-10T02:04:44.048Z,16.08
2018-05-10T02:05:43.814Z,16.12
2018-05-10T02:06:43.837Z,16.1
2018-05-10T02:07:44.119Z,16.01
2018-05-10T02:08:43.884Z,16.08
2018-05-10T02:09:44.155Z,16.05
2018-05-10T02:10:44.260Z,16.01
2018-05-10T02:11:44.194Z,15.97
2018-05-10T02:12:43.711Z,16.08
2018-05-10T02:13:43.984Z,16.02
2018-05-10T02:14:44.381Z,15.77
2018-05-10T02:15:44.039Z,15.86
2018-05-10T02:16:44.306Z,15.86
2018-05-10T02:17:44.325Z,15.68
2018-05-10T02:18:44.355Z,15.73
2018-05-10T02:19:44.350Z,15.83
2018-05-10T02:20:44.376Z,15.95
2018-05-10T02:21:44.404Z,15.97
2018-05-10T02:22:44.171Z,16.05
2018-05-10T02:23:44.438Z,16.05
2018-05-10T02:24:44.459Z,16.12
2018-05-10T02:25:44.235Z,16.13
2018-05-10T02:26:44.502Z,16.1
2018-05-10T02:27:44.528Z,16.17
2018-05-10T02:28:44.564Z,16.1
2018-05-10T02:29:44.463Z,16.09
2018-05-10T02:30:44.611Z,16
2018-05-10T02:31:44.121Z,16.09
2018-05-10T02:32:44.744Z,16.15
2018-05-10T02:33:44.672Z,16.21
2018-05-10T02:34:44.693Z,16.21
2018-05-10T02:35:44.723Z,16.36
2018-05-10T02:36:44.733Z,16.31
2018-05-10T02:37:44.758Z,16.24
2018-05-10T02:38:44.531Z,16.21
2018-05-10T02:39:44.812Z,16.2
2018-05-10T02:40:44.577Z,16.08
2018-05-10T02:41:44.853Z,15.97
2018-05-10T02:42:44.622Z,15.97
2018-05-10T02:43:44.891Z,15.91
2018-05-10T02:44:44.969Z,16
2018-05-10T02:45:44.940Z,16
2018-05-10T02:46:44.965Z,15.98
2018-05-10T02:47:44.980Z,15.97
2018-05-10T02:48:45.073Z,15.84
2018-05-10T02:49:45.034Z,15.82
2018-05-10T02:50:45.041Z,15.83
2018-05-10T02:51:45.069Z,15.88
2018-05-10T02:52:45.085Z,15.98
2018-05-10T02:53:45.175Z,16.04
2018-05-10T02:54:45.128Z,16.05
2018-05-10T02:55:45.160Z,15.97
2018-05-10T02:56:45.188Z,15.92
2018-05-10T02:57:44.693Z,15.76
2018-05-10T02:58:45.224Z,15.88
2018-05-10T02:59:45.045Z,15.77
2018-05-10T03:00:45.274Z,15.62
2018-05-10T03:01:45.316Z,15.59
2018-05-10T03:02:45.309Z,15.52
2018-05-10T03:03:45.342Z,15.33
2018-05-10T03:04:45.347Z,15.43
2018-05-10T03:05:45.110Z,15.39
2018-05-10T03:06:45.385Z,15.24
2018-05-10T03:07:45.173Z,15.09
2018-05-10T03:08:45.425Z,15.14
2018-05-10T03:09:45.464Z,15.17
2018-05-10T03:10:45.214Z,15.28
2018-05-10T03:11:45.500Z,15.33
2018-05-10T03:12:45.525Z,15.25
2018-05-10T03:13:45.025Z,15.21
2018-05-10T03:14:45.600Z,15.21
2018-05-10T03:15:45.571Z,15.19
2018-05-10T03:16:45.595Z,15.14
2018-05-10T03:17:45.109Z,15.09
2018-05-10T03:18:45.634Z,15.18
2018-05-10T03:19:45.668Z,15.18
2018-05-10T03:20:45.436Z,15.31
2018-05-10T03:21:45.709Z,15.19
2018-05-10T03:22:45.733Z,15.18
2018-05-10T03:23:45.483Z,15.22
2018-05-10T03:24:45.520Z,15.24
2018-05-10T03:25:45.541Z,15.18
2018-05-10T03:26:45.566Z,15.22
2018-05-10T03:27:45.834Z,15.33
2018-05-10T03:28:45.610Z,15.39
2018-05-10T03:29:45.676Z,15.39
2018-05-10T03:30:45.913Z,15.39
2018-05-10T03:31:45.674Z,15.36
2018-05-10T03:32:45.954Z,15.39
2018-05-10T03:33:45.970Z,15.42
2018-05-10T03:34:45.737Z,15.55
2018-05-10T03:35:45.774Z,15.57
2018-05-10T03:36:45.778Z,15.58
2018-05-10T03:37:46.069Z,15.61
2018-05-10T03:38:45.563Z,15.57
2018-05-10T03:39:45.834Z,15.52
2018-05-10T03:40:46.116Z,15.47
2018-05-10T03:41:45.880Z,15.54
2018-05-10T03:42:46.156Z,15.54
2018-05-10T03:43:45.924Z,15.64
2018-05-10T03:44:46.006Z,15.77
2018-05-10T03:45:46.226Z,15.79
2018-05-10T03:46:45.992Z,15.75
2018-05-10T03:47:46.011Z,15.72
2018-05-10T03:48:46.027Z,15.7
2018-05-10T03:49:46.313Z,15.7
2018-05-10T03:50:45.823Z,15.79
2018-05-10T03:51:46.348Z,15.84
2018-05-10T03:52:46.378Z,15.82
2018-05-10T03:53:46.410Z,15.82
2018-05-10T03:54:46.160Z,15.86
2018-05-10T03:55:46.446Z,15.77
2018-05-10T03:56:46.462Z,15.65
2018-05-10T03:57:46.231Z,15.76
2018-05-10T03:58:46.245Z,15.7
2018-05-10T03:59:46.550Z,15.75
2018-05-10T04:00:46.522Z,15.75
2018-05-10T04:01:46.548Z,15.77
2018-05-10T04:02:46.315Z,15.7
2018-05-10T04:03:46.606Z,15.64
2018-05-10T04:04:46.426Z,15.73
2018-05-10T04:05:46.649Z,15.72
2018-05-10T04:06:46.423Z,15.62
2018-05-10T04:07:46.699Z,15.58
2018-05-10T04:08:46.452Z,15.61
2018-05-10T04:09:46.486Z,15.59
2018-05-10T04:10:46.505Z,15.65
2018-05-10T04:11:46.792Z,15.72
2018-05-10T04:12:46.801Z,15.75
2018-05-10T04:13:46.826Z,15.52
2018-05-10T04:14:46.852Z,15.49
2018-05-10T04:15:46.865Z,15.35
2018-05-10T04:16:46.885Z,15.39
2018-05-10T04:17:46.905Z,15.43
2018-05-10T04:18:46.929Z,15.49
2018-05-10T04:19:47.089Z,15.51
2018-05-10T04:20:46.972Z,15.61
2018-05-10T04:21:46.987Z,15.54
2018-05-10T04:22:47.044Z,15.55
2018-05-10T04:23:47.032Z,15.59
2018-05-10T04:24:46.797Z,15.64
2018-05-10T04:25:47.054Z,15.75
2018-05-10T04:26:47.102Z,15.68
2018-05-10T04:27:47.229Z,15.79
2018-05-10T04:28:47.149Z,15.72
2018-05-10T04:29:46.912Z,15.79
2018-05-10T04:30:46.930Z,15.8
2018-05-10T04:31:47.209Z,15.73
2018-05-10T04:32:46.986Z,15.82
2018-05-10T04:33:46.996Z,15.76
2018-05-10T04:34:47.316Z,15.77
2018-05-10T04:35:47.430Z,15.8
2018-05-10T04:36:47.055Z,15.92
2018-05-10T04:37:46.821Z,15.97
2018-05-10T04:38:47.092Z,16.04
2018-05-10T04:39:46.863Z,16.02
2018-05-10T04:40:47.397Z,16.13
2018-05-10T04:41:47.414Z,16.24
2018-05-10T04:42:47.179Z,16.32
2018-05-10T04:43:47.468Z,16.32
2018-05-10T04:44:47.233Z,16.28
2018-05-10T04:45:47.505Z,16.23
2018-05-10T04:46:47.533Z,16.24
2018-05-10T04:47:47.301Z,16.13
2018-05-10T04:48:47.318Z,16.1
2018-05-10T04:49:47.141Z,16.17
2018-05-10T04:50:47.620Z,16.17
2018-05-10T04:51:47.388Z,16.23
2018-05-10T04:52:47.663Z,16.2
2018-05-10T04:53:47.685Z,16.28
2018-05-10T04:54:48.012Z,16.31
2018-05-10T04:55:47.727Z,16.36
2018-05-10T04:56:47.754Z,16.32
2018-05-10T04:57:47.297Z,16.31
2018-05-10T04:58:47.536Z,16.21
2018-05-10T04:59:47.818Z,16.09
2018-05-10T05:00:47.819Z,16.12
2018-05-10T05:01:47.843Z,16.09
2018-05-10T05:02:47.611Z,16.12
2018-05-10T05:03:47.882Z,16.26
2018-05-10T05:04:47.711Z,16.16
2018-05-10T05:05:47.435Z,16.17
2018-05-10T05:06:47.711Z,16.29
2018-05-10T05:07:47.984Z,16.41
2018-05-10T05:08:48.268Z,16.41
2018-05-10T05:09:48.024Z,16.38
2018-05-10T05:10:47.797Z,16.41
2018-05-10T05:11:48.058Z,16.33
2018-05-10T05:12:48.212Z,16.32
2018-05-10T05:13:48.102Z,16.38
2018-05-10T05:14:48.129Z,16.33
2018-05-10T05:15:48.153Z,16.23
2018-05-10T05:16:48.172Z,16.38
2018-05-10T05:17:48.206Z,16.39
2018-05-10T05:18:48.211Z,16.47
2018-05-10T05:19:48.277Z,16.24
2018-05-10T05:20:47.751Z,16.24
2018-05-10T05:21:48.274Z,16.39
2018-05-10T05:22:48.063Z,16.42
2018-05-10T05:23:48.336Z,16.41
2018-05-10T05:24:48.360Z,16.5
2018-05-10T05:25:48.381Z,16.64
2018-05-10T05:26:48.482Z,16.58
2018-05-10T05:27:48.430Z,16.64
2018-05-10T05:28:48.445Z,16.71
2018-05-10T05:29:48.481Z,16.66
2018-05-10T05:30:48.236Z,16.84
2018-05-10T05:31:48.523Z,16.83
2018-05-10T05:32:48.058Z,16.96
2018-05-10T05:33:48.308Z,17.09
2018-05-10T05:34:48.376Z,17.23
2018-05-10T05:35:48.605Z,17.31
2018-05-10T05:36:48.622Z,17.29
2018-05-10T05:37:48.387Z,17.34
2018-05-10T05:38:48.668Z,17.38
2018-05-10T05:39:48.184Z,17.39
2018-05-10T05:40:48.462Z,17.38
2018-05-10T05:41:48.732Z,17.38
2018-05-10T05:42:48.501Z,17.38
2018-05-10T05:43:48.524Z,17.39
2018-05-10T05:44:48.551Z,17.42
2018-05-10T05:45:48.832Z,17.46
2018-05-10T05:46:48.605Z,17.49
2018-05-10T05:47:48.875Z,17.48
2018-05-10T05:48:48.633Z,17.52
2018-05-10T05:49:48.708Z,17.52
2018-05-10T05:50:48.680Z,17.71
2018-05-10T05:51:48.703Z,17.7
2018-05-10T05:52:48.724Z,17.64
2018-05-10T05:53:48.748Z,17.72
2018-05-10T05:54:49.101Z,17.74
2018-05-10T05:55:49.040Z,17.82
2018-05-10T05:56:48.811Z,17.82
2018-05-10T05:57:49.086Z,17.86
2018-05-10T05:58:48.857Z,17.86
2018-05-10T05:59:49.128Z,17.74
2018-05-10T06:00:48.973Z,17.71
2018-05-10T06:01:48.936Z,17.51
2018-05-10T06:02:48.948Z,17.48
2018-05-10T06:03:49.224Z,17.36
2018-05-10T06:04:49.145Z,17.45
2018-05-10T06:05:49.280Z,17.51
2018-05-10T06:06:49.309Z,17.67
2018-05-10T06:07:49.329Z,17.72
2018-05-10T06:08:49.686Z,17.86
2018-05-10T06:09:49.122Z,17.98
2018-05-10T06:10:49.145Z,18.05
2018-05-10T06:11:49.429Z,18.15
2018-05-10T06:12:49.433Z,18.16
2018-05-10T06:13:49.480Z,18.04
2018-05-10T06:14:49.232Z,18.07
2018-05-10T06:15:49.929Z,18.15
2018-05-10T06:16:49.285Z,18.05
2018-05-10T06:17:49.557Z,18.15
2018-05-10T06:18:49.583Z,18.31
2018-05-10T06:19:49.656Z,18.37
2018-05-10T06:20:49.627Z,18.29
2018-05-10T06:21:49.651Z,18.29
2018-05-10T06:22:49.159Z,18.38
2018-05-10T06:23:49.693Z,18.5
2018-05-10T06:24:49.897Z,18.49
2018-05-10T06:25:49.742Z,18.47
2018-05-10T06:26:49.767Z,18.49
2018-05-10T06:27:49.793Z,18.62
2018-05-10T06:28:49.819Z,18.81
2018-05-10T06:29:49.581Z,18.74
2018-05-10T06:30:49.861Z,18.95
2018-05-10T06:31:49.627Z,18.8
2018-05-10T06:32:49.909Z,18.89
2018-05-10T06:33:49.928Z,18.75
2018-05-10T06:34:50.000Z,18.7
2018-05-10T06:35:49.721Z,18.77
2018-05-10T06:36:49.744Z,18.74
2018-05-10T06:37:50.022Z,18.71
2018-05-10T06:38:49.796Z,18.71
2018-05-10T06:39:49.550Z,18.77
2018-05-10T06:40:50.079Z,18.73
2018-05-10T06:41:50.107Z,18.83
2018-05-10T06:42:50.130Z,18.89
2018-05-10T06:43:50.148Z,19.11
2018-05-10T06:44:49.918Z,19.18
2018-05-10T06:45:49.948Z,19.16
2018-05-10T06:46:50.153Z,19.16
2018-05-10T06:47:50.254Z,19.09
2018-05-10T06:48:50.274Z,19
2018-05-10T06:49:50.349Z,18.99
2018-05-10T06:50:50.326Z,19.02
2018-05-10T06:51:50.348Z,19.07
2018-05-10T06:52:50.370Z,19.16
2018-05-10T06:53:50.395Z,19.12
2018-05-10T06:54:50.547Z,19.16
2018-05-10T06:55:50.446Z,19.15
2018-05-10T06:56:50.472Z,19.22
2018-05-10T06:57:50.489Z,19.19
2018-05-10T06:58:50.520Z,19.22
2018-05-10T06:59:50.538Z,19.15
2018-05-10T07:00:50.565Z,19.14
2018-05-10T07:01:50.590Z,19.12
2018-05-10T07:02:50.610Z,19.22
2018-05-10T07:03:50.378Z,19.3
2018-05-10T07:04:50.707Z,19.18
2018-05-10T07:05:50.680Z,19.02
2018-05-10T07:06:50.743Z,19.19
2018-05-10T07:07:50.726Z,19.16
2018-05-10T07:08:50.499Z,19.18
2018-05-10T07:09:50.884Z,19.34
2018-05-10T07:10:50.544Z,19.41
2018-05-10T07:11:50.837Z,19.4
2018-05-10T07:12:50.599Z,19.4
2018-05-10T07:13:50.874Z,19.41
2018-05-10T07:14:50.649Z,19.36
2018-05-10T07:15:50.669Z,19.4
2018-05-10T07:16:50.954Z,19.51
2018-05-10T07:17:50.971Z,19.49
2018-05-10T07:18:50.996Z,19.58
2018-05-10T07:19:51.073Z,19.62
2018-05-10T07:20:51.040Z,19.51
2018-05-10T07:21:51.077Z,19.54
2018-05-10T07:22:51.157Z,19.51
2018-05-10T07:23:50.856Z,19.64
2018-05-10T07:24:51.134Z,19.79
2018-05-10T07:25:51.156Z,19.84
2018-05-10T07:26:50.952Z,19.96
2018-05-10T07:27:50.951Z,20.03
2018-05-10T07:28:51.235Z,19.96
2018-05-10T07:29:51.253Z,19.88
2018-05-10T07:30:51.355Z,19.89
2018-05-10T07:31:51.300Z,19.86
2018-05-10T07:32:51.347Z,19.92
2018-05-10T07:33:51.355Z,19.94
2018-05-10T07:34:52.640Z,19.82
2018-05-10T07:35:51.149Z,19.77
2018-05-10T07:36:51.423Z,19.89
2018-05-10T07:37:51.453Z,20.07
2018-05-10T07:38:51.471Z,20.18
2018-05-10T07:39:51.549Z,20.24
2018-05-10T07:40:51.271Z,20.26
2018-05-10T07:41:51.538Z,20.21
2018-05-10T07:42:51.561Z,20.21
2018-05-10T07:43:51.605Z,20.14
2018-05-10T07:44:51.619Z,20.31
2018-05-10T07:45:51.387Z,20.31
2018-05-10T07:46:51.415Z,20.18
2018-05-10T07:47:51.694Z,20.13
2018-05-10T07:48:51.464Z,20.16
2018-05-10T07:49:51.744Z,20.25
2018-05-10T07:50:51.762Z,20.22
2018-05-10T07:51:51.784Z,20.34
2018-05-10T07:52:51.813Z,20.44
2018-05-10T07:53:51.835Z,20.74
2018-05-10T07:54:51.654Z,21.02
2018-05-10T07:55:51.629Z,21.2
2018-05-10T07:56:51.656Z,21.5
2018-05-10T07:57:51.929Z,21.46
2018-05-10T07:58:51.702Z,21.24
2018-05-10T07:59:51.496Z,21.15
2018-05-10T08:00:51.849Z,21.03
2018-05-10T08:01:52.033Z,21.14
2018-05-10T08:02:52.062Z,21.15
2018-05-10T08:03:51.831Z,21.36
2018-05-10T08:04:51.604Z,21.36
2018-05-10T08:05:51.881Z,21.22
2018-05-10T08:06:51.908Z,21.06
2018-05-10T08:07:52.182Z,21.07
2018-05-10T08:08:52.229Z,21.2
2018-05-10T08:09:52.287Z,21.15
2018-05-10T08:10:52.267Z,21.17
2018-05-10T08:11:52.040Z,21.17
2018-05-10T08:12:52.315Z,21.35
2018-05-10T08:13:52.348Z,21.58
2018-05-10T08:14:52.369Z,21.7
2018-05-10T08:15:52.138Z,21.72
2018-05-10T08:16:52.162Z,21.51
2018-05-10T08:17:52.437Z,21.33
2018-05-10T08:18:52.467Z,21.43
2018-05-10T08:19:52.485Z,21.7
2018-05-10T08:20:52.518Z,21.96
2018-05-10T08:21:52.569Z,21.8
2018-05-10T08:22:52.316Z,21.69
2018-05-10T08:23:52.593Z,21.66
2018-05-10T08:24:52.676Z,21.72
2018-05-10T08:25:52.388Z,21.67
2018-05-10T08:26:52.162Z,21.76
2018-05-10T08:27:52.442Z,21.8
2018-05-10T08:28:52.719Z,21.83
2018-05-10T08:29:53.949Z,21.72
2018-05-10T08:30:52.766Z,21.66
2018-05-10T08:31:52.798Z,21.48
2018-05-10T08:32:52.571Z,21.27
2018-05-10T08:33:52.599Z,21.27
2018-05-10T08:34:52.633Z,21.14
2018-05-10T08:35:52.902Z,21.27
2018-05-10T08:36:53.035Z,21.09
2018-05-10T08:37:52.447Z,21
2018-05-10T08:38:53.003Z,21.25
2018-05-10T08:39:53.070Z,21.66
2018-05-10T08:40:53.041Z,21.5
2018-05-10T08:41:52.806Z,21.51
2018-05-10T08:42:52.574Z,21.6
2018-05-10T08:43:52.856Z,21.89
2018-05-10T08:44:53.137Z,21.95
2018-05-10T08:45:53.158Z,21.72
2018-05-10T08:46:53.186Z,21.79
2018-05-10T08:47:53.214Z,21.95
2018-05-10T08:48:52.984Z,22.18
2018-05-10T08:49:53.361Z,22.13
2018-05-10T08:50:52.785Z,21.99
2018-05-10T08:51:53.792Z,21.95
2018-05-10T08:52:53.345Z,22.1
2018-05-10T08:53:53.366Z,22.36
2018-05-10T08:54:53.449Z,22.41
2018-05-10T08:55:53.168Z,22.39
2018-05-10T08:56:53.238Z,22.29
2018-05-10T08:57:53.217Z,22.41
2018-05-10T08:58:53.493Z,22.65
2018-05-10T08:59:53.277Z,22.91
2018-05-10T09:00:53.565Z,22.81
2018-05-10T09:01:53.071Z,22.68
2018-05-10T09:02:53.601Z,22.6
2018-05-10T09:03:53.637Z,22.66
2018-05-10T09:04:53.655Z,22.84
2018-05-10T09:05:53.677Z,22.93
2018-05-10T09:06:53.711Z,22.54
2018-05-10T09:07:53.474Z,22.35
2018-05-10T09:08:53.753Z,22.18
2018-05-10T09:09:53.834Z,22.29
2018-05-10T09:10:53.809Z,22.22
2018-05-10T09:11:53.837Z,22.04
2018-05-10T09:12:53.609Z,22.33
2018-05-10T09:13:53.892Z,22.54
2018-05-10T09:14:53.923Z,22.43
2018-05-10T09:15:53.945Z,22.32
2018-05-10T09:16:53.717Z,22.17
2018-05-10T09:17:53.997Z,21.96
2018-05-10T09:18:54.020Z,21.55
2018-05-10T09:19:54.050Z,21.54
2018-05-10T09:20:54.071Z,21.66
2018-05-10T09:21:54.100Z,21.72
2018-05-10T09:22:54.130Z,21.96
2018-05-10T09:23:54.154Z,22.22
2018-05-10T09:24:54.233Z,22.15
2018-05-10T09:25:54.233Z,22.39
2018-05-10T09:26:54.278Z,22.54
2018-05-10T09:27:54.256Z,22.65
2018-05-10T09:28:54.044Z,22.51
2018-05-10T09:29:54.306Z,22.68
2018-05-10T09:30:54.347Z,22.54
2018-05-10T09:31:54.356Z,22.53
2018-05-10T09:32:54.141Z,22.8
2018-05-10T09:33:54.299Z,22.76
2018-05-10T09:34:54.183Z,22.84
2018-05-10T09:35:54.210Z,22.75
2018-05-10T09:36:54.258Z,22.75
2018-05-10T09:37:54.513Z,23.03
2018-05-10T09:38:54.539Z,23.06
2018-05-10T09:39:54.357Z,23.06
2018-05-10T09:40:54.591Z,23.09
2018-05-10T09:41:54.374Z,23.2
2018-05-10T09:42:54.643Z,23.28
2018-05-10T09:43:54.682Z,23.27
2018-05-10T09:44:54.871Z,23.23
2018-05-10T09:45:54.471Z,23.2
2018-05-10T09:46:54.502Z,23.56
2018-05-10T09:47:54.527Z,23.86
2018-05-10T09:48:54.823Z,24.33
2018-05-10T09:49:54.840Z,24.5
2018-05-10T09:50:54.612Z,24.06
2018-05-10T09:51:54.648Z,24.03
2018-05-10T09:52:54.416Z,24.28
2018-05-10T09:53:54.956Z,24.48
2018-05-10T09:54:55.028Z,24.69
2018-05-10T09:55:54.758Z,24.8
2018-05-10T09:56:55.037Z,25.08
2018-05-10T09:57:55.068Z,25.51
2018-05-10T09:58:55.090Z,25.53
2018-05-10T09:59:54.909Z,25.35
2018-05-10T10:00:55.155Z,25.4
2018-05-10T10:01:54.927Z,25.68
2018-05-10T10:02:54.705Z,25.68
2018-05-10T10:03:54.986Z,25.53
2018-05-10T10:04:55.268Z,25.65
2018-05-10T10:05:55.300Z,25.96
2018-05-10T10:06:54.821Z,25.73
2018-05-10T10:07:55.340Z,25.88
2018-05-10T10:08:55.369Z,25.85
2018-05-10T10:09:55.398Z,25.9
2018-05-10T10:10:55.436Z,25.54
2018-05-10T10:11:55.455Z,25.14
2018-05-10T10:12:55.483Z,24.98
2018-05-10T10:13:55.522Z,24.99
2018-05-10T10:14:55.040Z,25.25
2018-05-10T10:15:55.637Z,24.7
2018-05-10T10:16:55.630Z,24.81
2018-05-10T10:17:55.651Z,24.76
2018-05-10T10:18:55.691Z,24.81
2018-05-10T10:19:55.461Z,25.26
2018-05-10T10:20:55.490Z,25.17
2018-05-10T10:21:55.772Z,25.31
2018-05-10T10:22:55.804Z,25.58
2018-05-10T10:23:55.580Z,25.7
2018-05-10T10:24:55.862Z,25.88
2018-05-10T10:25:55.894Z,26.28
2018-05-10T10:26:55.667Z,26.6
2018-05-10T10:27:55.951Z,26.63
2018-05-10T10:28:55.725Z,26.6
2018-05-10T10:29:55.759Z,26.99
2018-05-10T10:30:56.040Z,27.2
2018-05-10T10:31:55.815Z,27.21
2018-05-10T10:32:55.847Z,27.22
2018-05-10T10:33:56.130Z,27.15
2018-05-10T10:34:56.151Z,27.15
2018-05-10T10:35:55.930Z,27.08
2018-05-10T10:36:55.958Z,27.1
2018-05-10T10:37:56.004Z,27.08
2018-05-10T10:38:56.271Z,27.7
2018-05-10T10:39:56.049Z,27.74
2018-05-10T10:40:56.104Z,27.78
2018-05-10T10:41:56.369Z,28.25
2018-05-10T10:42:56.144Z,28.27
2018-05-10T10:43:56.174Z,28.38
2018-05-10T10:44:56.458Z,28.67
2018-05-10T10:45:56.252Z,28
2018-05-10T10:46:56.526Z,27.68
2018-05-10T10:47:56.061Z,27.3
2018-05-10T10:48:56.330Z,26.37
2018-05-10T10:49:56.600Z,25.65
2018-05-10T10:50:56.637Z,25.91
2018-05-10T10:51:56.683Z,26.38
2018-05-10T10:52:56.271Z,26.62
2018-05-10T10:53:56.887Z,27.21
2018-05-10T10:54:56.511Z,27.75
2018-05-10T10:55:56.807Z,27.8
2018-05-10T10:56:56.826Z,28.04
2018-05-10T10:57:56.861Z,28.57
2018-05-10T10:58:56.892Z,28.74
2018-05-10T10:59:57.169Z,28.72
2018-05-10T11:00:56.950Z,28.81
2018-05-10T11:01:56.836Z,29.14
2018-05-10T11:02:56.761Z,28.78
2018-05-10T11:03:57.051Z,28.1
2018-05-10T11:04:56.569Z,27.39
2018-05-10T11:05:57.097Z,26.37
2018-05-10T11:06:57.132Z,26.41
2018-05-10T11:07:57.155Z,26.02
2018-05-10T11:08:57.224Z,25.88
2018-05-10T11:09:57.216Z,25.43
2018-05-10T11:10:56.994Z,25.41
2018-05-10T11:11:57.276Z,25.63
2018-05-10T11:12:57.307Z,25.99
2018-05-10T11:13:57.086Z,26.09
2018-05-10T11:14:57.458Z,26.28
2018-05-10T11:15:57.400Z,26.65
2018-05-10T11:16:56.920Z,27.37
2018-05-10T11:17:57.482Z,28.15
2018-05-10T11:18:57.238Z,28.98
2018-05-10T11:19:57.514Z,28.51
2018-05-10T11:20:57.432Z,28.38
2018-05-10T11:21:57.587Z,27.8
2018-05-10T11:22:57.599Z,27.64
2018-05-10T11:23:57.645Z,27.59
2018-05-10T11:24:57.696Z,27.18
2018-05-10T11:25:57.705Z,26.74
2018-05-10T11:26:57.742Z,27.05
2018-05-10T11:27:57.767Z,27.17
2018-05-10T11:28:57.797Z,27.18
2018-05-10T11:29:57.573Z,26.8
2018-05-10T11:30:57.347Z,26.66
2018-05-10T11:31:57.883Z,26.84
2018-05-10T11:32:58.020Z,26.47
2018-05-10T11:33:57.944Z,26.6
2018-05-10T11:34:57.978Z,26.62
2018-05-10T11:35:58.002Z,26.6
2018-05-10T11:36:57.783Z,26.65
2018-05-10T11:37:58.064Z,26.44
2018-05-10T11:38:57.845Z,26.29
2018-05-10T11:39:58.124Z,26.25
2018-05-10T11:40:58.158Z,26.55
2018-05-10T11:41:57.935Z,27.02
2018-05-10T11:42:58.218Z,27.9
2018-05-10T11:43:58.240Z,27.93
2018-05-10T11:44:58.293Z,27.71
2018-05-10T11:45:58.050Z,27.6
2018-05-10T11:46:58.331Z,27.83
2018-05-10T11:47:58.380Z,28.79
2018-05-10T11:48:58.135Z,28.48
2018-05-10T11:49:58.162Z,28.51
2018-05-10T11:50:58.501Z,28.84
2018-05-10T11:51:58.241Z,29.01
2018-05-10T11:52:58.525Z,29.41
2018-05-10T11:53:58.649Z,29.22
2018-05-10T11:54:58.331Z,29.87
2018-05-10T11:55:58.408Z,30.39
2018-05-10T11:56:58.645Z,29.94
2018-05-10T11:57:58.679Z,29.73
2018-05-10T11:58:58.711Z,29.6
2018-05-10T11:59:58.790Z,29.84
2018-05-10T12:00:58.771Z,29.79
2018-05-10T12:01:58.806Z,29.69
2018-05-10T12:02:58.836Z,29.6
2018-05-10T12:03:58.871Z,29.5
2018-05-10T12:04:58.709Z,28.98
2018-05-10T12:05:59.030Z,28.01
2018-05-10T12:06:58.700Z,27.73
2018-05-10T12:07:58.734Z,27.78
2018-05-10T12:08:58.770Z,27.8
2018-05-10T12:09:58.801Z,27.32
2018-05-10T12:10:59.077Z,27.58
2018-05-10T12:11:59.114Z,27.73
2018-05-10T12:12:58.892Z,28.11
2018-05-10T12:13:59.169Z,28.2
2018-05-10T12:14:59.193Z,28.04
2018-05-10T12:15:59.248Z,28.39
2018-05-10T12:16:59.020Z,28.17
2018-05-10T12:17:59.302Z,27.78
2018-05-10T12:18:59.338Z,28.04
2018-05-10T12:19:59.386Z,27.92
2018-05-10T12:20:59.452Z,27.75
2018-05-10T12:21:59.427Z,27.45
2018-05-10T12:22:59.450Z,27.25
2018-05-10T12:23:59.505Z,27.47
2018-05-10T12:24:59.299Z,27.14
2018-05-10T12:25:59.335Z,26.58
2018-05-10T12:26:59.324Z,25.9
2018-05-10T12:27:59.641Z,25.7
2018-05-10T12:28:59.731Z,25.95
2018-05-10T12:29:59.670Z,26.25
2018-05-10T12:30:59.779Z,26.74
2018-05-10T12:31:59.685Z,27.33
2018-05-10T12:32:59.765Z,27.73
2018-05-10T12:33:59.790Z,28.66
2018-05-10T12:34:59.854Z,28.98
2018-05-10T12:35:59.915Z,29.41
2018-05-10T12:36:59.662Z,29.95
2018-05-10T12:37:59.918Z,29.39
2018-05-10T12:39:00.000Z,29.27
2018-05-10T12:39:59.991Z,28.98
2018-05-10T12:41:00.032Z,29.16
2018-05-10T12:42:00.064Z,29.23
2018-05-10T12:43:00.079Z,29.1
2018-05-10T12:43:59.605Z,29.63
2018-05-10T12:45:00.153Z,29.95
2018-05-10T12:46:00.159Z,30.34
2018-05-10T12:46:59.941Z,30.16
2018-05-10T12:47:59.969Z,30.23
2018-05-10T12:49:00.251Z,30.39
2018-05-10T12:50:00.127Z,30.65
2018-05-10T12:51:00.122Z,30.81
2018-05-10T12:52:00.128Z,29.81
2018-05-10T12:53:00.397Z,29.56
2018-05-10T12:54:00.174Z,30.3
2018-05-10T12:55:00.458Z,30.43
2018-05-10T12:56:00.507Z,29.66